Time;durP1;ratioP1;P1;durP2;ratioP2;P2;SDS_P1;SDS_P2;PMS_P1;PMS_P2;Temp;Humidity;BMP_temperature;BMP_pressure;BME280_temperature;BME280_humidity;BME280_pressure;Samples;Min_cycle;Max_cycle;Signal;HPM_P1;HPM_P2
2022/11/17 00:00:30;;;;;;;5.40;4.90;;;;;;;1.49;89.65;97589.96;86080;1278;25424;-70
2022/11/17 00:02:38;;;;;;;10.30;3.70;;;;;;;1.49;89.67;97588.42;86040;1285;22475;-70
2022/11/17 00:04:39;;;;;;;4.60;4.00;;;;;;;1.49;89.75;97588.58;85982;1285;98376;-70
2022/11/17 00:06:41;;;;;;;3.40;3.10;;;;;;;1.49;89.80;97585.82;86099;1286;25539;-73
2022/11/17 00:08:43;;;;;;;4.10;3.80;;;;;;;1.49;89.70;97585.30;86092;1284;22489;-70
2022/11/17 00:10:45;;;;;;;4.40;4.00;;;;;;;1.48;89.74;97583.61;85901;1288;99069;-71
2022/11/17 00:15:07;;;;;;;4.00;3.70;;;;;;;1.46;89.85;97574.66;86039;1288;24642;-72
2022/11/17 00:17:11;;;;;;;5.20;4.00;;;;;;;1.50;89.62;97585.06;86128;1285;98989;-71
2022/11/17 00:21:39;;;;;;;3.70;3.40;;;;;;;1.52;89.85;97591.59;85940;1285;22601;-71
2022/11/17 00:23:46;;;;;;;3.80;3.50;;;;;;;1.48;89.74;97584.96;86236;1281;99098;-71
2022/11/17 00:25:49;;;;;;;4.70;4.30;;;;;;;1.54;89.82;97596.73;86038;1287;24315;-70
2022/11/17 00:27:52;;;;;;;4.60;4.30;;;;;;;1.57;89.73;97596.48;86118;1281;22754;-69
2022/11/17 00:29:54;;;;;;;4.60;4.20;;;;;;;1.59;89.97;97598.98;86031;1288;99018;-72
2022/11/17 00:34:19;;;;;;;5.10;4.60;;;;;;;1.61;89.96;97596.15;86215;1278;99544;-72
2022/11/17 00:36:24;;;;;;;5.20;4.50;;;;;;;1.62;89.96;97598.02;86116;1281;22622;-72
2022/11/17 00:38:26;;;;;;;5.20;4.80;;;;;;;1.63;89.67;97601.60;86335;1288;23826;-71
2022/11/17 00:40:28;;;;;;;5.80;4.50;;;;;;;1.65;89.83;97605.35;86178;1285;99203;-72
2022/11/17 00:42:29;;;;;;;5.00;4.60;;;;;;;1.66;89.98;97611.72;86081;1289;25995;-72
2022/11/17 00:44:31;;;;;;;7.20;5.00;;;;;;;1.67;89.63;97612.05;86230;1286;22525;-72
2022/11/17 00:46:34;;;;;;;5.00;4.60;;;;;;;1.68;89.91;97612.88;86134;1288;99007;-71
2022/11/17 00:48:37;;;;;;;4.30;3.90;;;;;;;1.69;89.89;97611.12;86405;1285;22573;-70
2022/11/17 00:50:38;;;;;;;4.40;4.00;;;;;;;1.69;89.88;97612.85;86082;1287;22472;-71
2022/11/17 00:52:40;;;;;;;4.10;3.80;;;;;;;1.69;90.01;97610.44;85979;1287;99806;-73
2022/11/17 00:54:42;;;;;;;14.90;4.10;;;;;;;1.68;89.71;97607.68;86270;1284;23996;-70
2022/11/17 00:56:44;;;;;;;3.60;3.30;;;;;;;1.69;89.78;97608.36;86268;1285;22571;-70
2022/11/17 00:58:45;;;;;;;3.90;3.70;;;;;;;1.68;90.18;97604.05;86088;1284;99036;-70
2022/11/17 01:00:48;;;;;;;4.00;3.70;;;;;;;1.69;90.03;97605.07;85971;1287;25444;-70
2022/11/17 01:02:50;;;;;;;4.00;3.50;;;;;;;1.69;89.77;97601.39;86261;1286;23382;-71
2022/11/17 01:04:52;;;;;;;4.10;3.80;;;;;;;1.70;89.95;97597.73;86050;1285;99016;-70
2022/11/17 01:06:53;;;;;;;4.50;4.10;;;;;;;1.71;89.93;97598.23;86181;1281;23080;-72
2022/11/17 01:08:59;;;;;;;3.90;3.60;;;;;;;1.71;89.99;97596.48;86267;1285;22493;-71
2022/11/17 01:11:08;;;;;;;4.20;3.90;;;;;;;1.71;90.00;97596.50;85951;1287;97889;-70
2022/11/17 01:13:09;;;;;;;4.00;3.70;;;;;;;1.71;89.99;97596.32;86224;1278;22512;-70
2022/11/17 01:15:11;;;;;;;3.70;3.40;;;;;;;1.72;89.75;97595.27;86280;1285;22478;-71
2022/11/17 01:17:13;;;;;;;4.10;3.80;;;;;;;1.73;90.07;97591.08;86156;1281;99002;-72
2022/11/17 01:19:16;;;;;;;4.40;3.90;;;;;;;1.73;89.79;97591.42;86320;1278;22492;-71
2022/11/17 01:21:20;;;;;;;4.30;4.00;;;;;;;1.74;89.81;97586.88;86244;1281;22542;-70
2022/11/17 01:23:23;;;;;;;4.00;3.60;;;;;;;1.66;89.93;97571.58;86093;1288;99149;-70
2022/11/17 01:25:25;;;;;;;4.40;3.80;;;;;;;1.72;89.99;97581.23;86295;1289;22511;-70
2022/11/17 01:27:26;;;;;;;3.30;3.00;;;;;;;1.71;89.82;97577.27;86539;1288;24682;-70
2022/11/17 01:29:28;;;;;;;3.70;3.40;;;;;;;1.70;89.62;97570.38;86224;1282;98093;-73
2022/11/17 01:31:36;;;;;;;3.10;2.90;;;;;;;1.69;89.86;97569.23;86178;1284;22608;-71
2022/11/17 01:33:38;;;;;;;3.70;3.10;;;;;;;1.69;89.91;97561.44;86192;1288;25352;-71
2022/11/17 01:35:40;;;;;;;2.50;2.30;;;;;;;1.67;89.97;97564.09;86138;1285;99048;-70
2022/11/17 01:37:41;;;;;;;3.20;2.90;;;;;;;1.66;89.82;97568.95;86181;1287;25384;-69
2022/11/17 01:39:44;;;;;;;3.00;2.80;;;;;;;1.67;89.87;97569.45;86199;1286;22481;-69
2022/11/17 01:41:46;;;;;;;3.50;3.20;;;;;;;1.62;89.93;97567.38;86057;1287;99270;-70
2022/11/17 01:43:50;;;;;;;2.90;2.60;;;;;;;1.66;90.12;97570.52;86035;1284;25398;-70
2022/11/17 01:45:59;;;;;;;2.80;2.60;;;;;;;1.66;89.86;97576.59;86137;1285;22507;-70
2022/11/17 01:48:05;;;;;;;3.20;3.00;;;;;;;1.65;89.72;97573.84;86030;1291;98938;-71
2022/11/17 01:50:44;;;;;;;3.00;2.80;;;;;;;1.66;89.91;97576.06;86101;1286;22536;-69
2022/11/17 01:52:49;;;;;;;3.10;3.60;;;;;;;1.64;89.73;97572.67;86127;1285;98978;-69
2022/11/17 01:54:53;;;;;;;2.90;2.70;;;;;;;1.62;89.82;97575.52;86115;1284;22602;-72
2022/11/17 01:57:01;;;;;;;3.00;2.80;;;;;;;1.61;89.82;97577.13;86111;1278;22594;-70
2022/11/17 01:59:26;;;;;;;3.10;2.90;;;;;;;1.61;89.98;97578.15;86161;1288;99463;-71
2022/11/17 02:01:27;;;;;;;2.80;2.50;;;;;;;1.60;90.22;97583.19;86226;1285;22585;-71
2022/11/17 02:03:33;;;;;;;2.70;2.50;;;;;;;1.61;90.15;97588.86;86029;1288;22505;-71
2022/11/17 02:06:06;;;;;;;2.90;2.70;;;;;;;1.61;90.06;97589.40;85944;1288;99416;-70
2022/11/17 02:08:10;;;;;;;2.70;2.60;;;;;;;1.60;89.89;97587.86;86001;1287;22483;-70
2022/11/17 02:10:12;;;;;;;3.20;3.00;;;;;;;1.60;90.18;97583.21;86257;1284;98275;-71
2022/11/17 02:12:15;;;;;;;2.60;2.40;;;;;;;1.60;90.11;97580.10;86191;1278;25325;-72
2022/11/17 02:14:19;;;;;;;2.90;2.60;;;;;;;1.60;89.97;97580.96;86107;1287;22707;-71
2022/11/17 02:16:20;;;;;;;3.90;3.60;;;;;;;1.60;89.88;97583.38;86061;1281;98090;-71
2022/11/17 02:18:22;;;;;;;4.20;3.80;;;;;;;1.61;89.97;97590.80;86153;1294;26582;-71
2022/11/17 02:20:43;;;;;;;4.20;3.90;;;;;;;1.60;90.15;97589.08;86260;1291;22540;-71
2022/11/17 02:23:19;;;;;;;3.50;3.30;;;;;;;1.61;89.74;97588.53;86182;1286;99022;-71
2022/11/17 02:25:45;;;;;;;3.00;2.70;;;;;;;1.61;90.05;97585.59;86227;1286;22594;-70
2022/11/17 02:28:14;;;;;;;3.10;2.80;;;;;;;1.61;89.93;97584.73;86175;1284;22445;-72
2022/11/17 02:30:19;;;;;;;2.70;2.50;;;;;;;1.59;89.90;97578.71;86049;1287;23536;-71
2022/11/17 02:33:01;;;;;;;4.40;2.10;;;;;;;1.59;89.72;97575.45;86419;1284;22524;-70
2022/11/17 02:38:31;;;;;;;3.10;2.50;;;;;;;1.58;90.00;97559.38;86749;1285;22471;-71
2022/11/17 02:40:40;;;;;;;2.20;2.10;;;;;;;1.56;90.12;97553.71;86193;1287;99244;-71
2022/11/17 02:45:13;;;;;;;4.40;2.80;;;;;;;1.55;89.77;97544.58;86255;1286;25339;-70
2022/11/17 02:47:21;;;;;;;3.10;2.90;;;;;;;1.54;89.86;97541.32;85917;1289;99011;-70
2022/11/17 02:49:32;;;;;;;3.20;3.00;;;;;;;1.52;90.10;97540.87;86100;1287;24443;-71
2022/11/17 02:51:36;;;;;;;2.80;2.50;;;;;;;1.50;89.89;97542.31;86173;1284;22479;-69
2022/11/17 02:53:39;;;;;;;2.40;2.30;;;;;;;1.50;90.05;97548.73;86098;1284;99508;-70
2022/11/17 02:55:58;;;;;;;2.90;2.70;;;;;;;1.49;90.12;97547.21;86272;1287;22496;-72
2022/11/17 02:58:00;;;;;;;3.60;3.20;;;;;;;1.46;90.04;97543.67;86135;1292;22486;-71
2022/11/17 03:00:07;;;;;;;3.30;3.00;;;;;;;1.45;89.65;97546.30;86103;1293;99142;-71
2022/11/17 03:02:50;;;;;;;3.60;3.30;;;;;;;1.44;89.78;97548.80;85991;1292;22521;-71
2022/11/17 03:05:14;;;;;;;3.10;2.90;;;;;;;1.38;89.97;97557.63;86062;1284;108708;-71
2022/11/17 03:07:47;;;;;;;2.20;2.10;;;;;;;1.41;89.79;97576.38;86222;1285;22487;-71
2022/11/17 03:10:02;;;;;;;2.70;2.10;;;;;;;1.42;90.02;97581.02;86205;1286;26641;-71
2022/11/17 03:12:09;;;;;;;2.40;2.20;;;;;;;1.42;89.82;97580.34;86094;1290;99735;-70
2022/11/17 03:14:22;;;;;;;3.70;2.60;;;;;;;1.43;90.03;97576.70;86079;1284;22534;-71
2022/11/17 03:16:44;;;;;;;3.00;2.80;;;;;;;1.43;89.77;97573.20;85985;1285;99304;-71
2022/11/17 03:18:59;;;;;;;2.80;2.60;;;;;;;1.43;90.11;97572.36;86036;1287;23472;-71
2022/11/17 03:21:15;;;;;;;2.70;2.50;;;;;;;1.44;89.99;97575.23;86106;1285;24253;-70
2022/11/17 03:23:23;;;;;;;2.70;2.50;;;;;;;1.46;90.08;97582.79;86012;1285;100903;-70
2022/11/17 03:25:27;;;;;;;4.00;3.10;;;;;;;1.48;90.01;97582.40;86072;1286;22512;-71
2022/11/17 03:27:39;;;;;;;2.90;2.70;;;;;;;1.48;89.80;97579.63;86221;1284;22514;-71
2022/11/17 03:29:45;;;;;;;3.00;2.80;;;;;;;1.49;89.86;97575.42;86071;1289;97929;-71
2022/11/17 03:31:50;;;;;;;2.90;2.70;;;;;;;1.50;90.03;97576.42;85999;1288;22531;-71
2022/11/17 03:33:53;;;;;;;2.40;2.30;;;;;;;1.52;90.27;97572.54;85997;1289;22508;-71
2022/11/17 03:36:06;;;;;;;3.00;2.80;;;;;;;1.53;90.22;97572.17;86079;1284;99356;-70
2022/11/17 03:38:11;;;;;;;2.70;2.50;;;;;;;1.54;90.07;97576.12;85938;1288;25245;-69
2022/11/17 03:40:18;;;;;;;2.30;2.20;;;;;;;1.56;90.32;97572.61;85889;1289;22889;-70
2022/11/17 03:42:25;;;;;;;5.70;2.80;;;;;;;1.58;90.00;97572.71;86097;1285;22508;-71
2022/11/17 03:44:32;;;;;;;2.80;2.60;;;;;;;1.60;90.25;97571.27;86123;1287;22686;-70
2022/11/17 03:46:37;;;;;;;2.60;2.40;;;;;;;1.60;90.01;97572.81;86072;1285;99152;-71
2022/11/17 03:49:05;;;;;;;2.60;2.50;;;;;;;1.61;90.12;97574.34;85938;1288;22619;-69
2022/11/17 03:51:15;;;;;;;3.20;3.00;;;;;;;1.61;90.19;97574.85;86009;1282;22896;-70
2022/11/17 03:53:17;;;;;;;5.30;2.70;;;;;;;1.62;90.12;97576.04;86091;1286;98981;-70
2022/11/17 03:55:25;;;;;;;2.80;2.60;;;;;;;1.62;89.99;97577.26;86155;1284;22595;-70
2022/11/17 03:57:52;;;;;;;7.10;2.50;;;;;;;1.62;90.13;97578.63;86047;1288;22500;-69
2022/11/17 04:00:11;;;;;;;2.90;2.70;;;;;;;1.63;90.07;97577.36;86097;1284;99004;-70
2022/11/17 04:02:20;;;;;;;3.80;2.00;;;;;;;1.64;90.16;97577.34;86284;1278;22608;-71
2022/11/17 04:04:22;;;;;;;5.10;2.20;;;;;;;1.65;89.95;97577.29;86052;1285;99230;-71
2022/11/17 04:06:24;;;;;;;2.10;2.00;;;;;;;1.65;90.47;97576.63;86111;1288;22596;-70
2022/11/17 04:08:29;;;;;;;1.90;1.80;;;;;;;1.65;90.25;97575.59;86143;1282;22981;-70
2022/11/17 04:15:54;;;;;;;2.40;2.30;;;;;;;1.65;90.08;97576.10;86234;1284;99181;-71
2022/11/17 04:17:34;;;;;;;2.50;2.30;;;;;;;1.66;90.24;97574.17;86018;1284;98061;-70
2022/11/17 04:19:36;;;;;;;2.20;2.10;;;;;;;1.66;90.18;97573.61;86094;1289;24365;-70
2022/11/17 04:21:38;;;;;;;2.40;2.30;;;;;;;1.67;90.03;97573.93;86181;1284;25771;-71
2022/11/17 04:23:40;;;;;;;2.90;2.70;;;;;;;1.69;90.06;97572.69;86225;1284;98979;-71
2022/11/17 04:30:28;;;;;;;2.50;2.40;;;;;;;1.70;90.12;97582.48;86161;1286;23799;-71
2022/11/17 04:32:29;;;;;;;1.80;1.70;;;;;;;1.70;90.01;97585.44;86145;1284;22733;-71
2022/11/17 04:34:31;;;;;;;5.00;2.40;;;;;;;1.69;89.78;97588.05;85920;1287;99569;-71
2022/11/17 04:36:39;;;;;;;2.40;2.20;;;;;;;1.70;90.20;97588.91;85874;1288;22994;-70
2022/11/17 04:38:43;;;;;;;2.10;2.00;;;;;;;1.71;90.19;97594.06;86174;1286;22614;-71
2022/11/17 04:41:52;;;;;;;2.50;2.30;;;;;;;1.71;89.95;97587.48;86277;1288;99392;-71
2022/11/17 04:43:07;;;;;;;2.20;2.10;;;;;;;1.72;89.96;97588.84;86074;1281;24294;-70
2022/11/17 04:45:09;;;;;;;2.70;2.50;;;;;;;1.73;89.80;97588.66;86091;1284;22481;-70
2022/11/17 04:47:13;;;;;;;2.50;2.10;;;;;;;1.72;90.04;97585.03;86069;1288;99146;-69
2022/11/17 04:49:17;;;;;;;2.00;1.90;;;;;;;1.72;90.28;97582.95;86033;1287;25763;-71
2022/11/17 04:51:19;;;;;;;1.90;1.80;;;;;;;1.66;89.88;97577.27;86237;1287;26487;-70
2022/11/17 04:53:22;;;;;;;2.00;1.90;;;;;;;1.70;89.71;97582.66;86594;1294;99306;-71
2022/11/17 04:55:24;;;;;;;2.30;2.20;;;;;;;1.68;89.94;97578.76;86070;1282;22517;-70
2022/11/17 04:57:26;;;;;;;2.70;2.50;;;;;;;1.70;90.27;97584.93;86100;1278;22512;-70
2022/11/17 04:59:28;;;;;;;2.60;2.40;;;;;;;1.69;89.94;97583.05;86092;1287;99645;-70
2022/11/17 05:01:30;;;;;;;1.90;1.80;;;;;;;1.68;90.22;97584.67;86078;1281;22481;-69
2022/11/17 05:03:32;;;;;;;2.40;2.30;;;;;;;1.66;89.72;97586.78;85879;1285;22466;-70
2022/11/17 05:05:34;;;;;;;2.30;2.20;;;;;;;1.64;89.68;97588.60;86036;1285;99630;-71
2022/11/17 05:07:36;;;;;;;2.90;2.70;;;;;;;1.62;90.04;97586.59;86024;1285;22601;-70
2022/11/17 05:09:37;;;;;;;3.70;3.30;;;;;;;1.61;90.21;97589.77;85936;1285;22605;-70
2022/11/17 05:14:01;;;;;;;2.90;2.60;;;;;;;1.59;89.92;97590.33;85934;1285;22622;-69
2022/11/17 05:18:24;;;;;;;2.90;2.70;;;;;;;1.58;89.86;97593.13;85969;1288;25548;-70
2022/11/17 05:20:26;;;;;;;2.40;2.30;;;;;;;1.58;90.01;97597.30;85997;1284;25681;-70
2022/11/17 05:25:03;;;;;;;3.00;2.80;;;;;;;1.54;89.81;97593.77;85793;1284;22753;-69
2022/11/17 05:27:04;;;;;;;2.40;2.30;;;;;;;1.53;89.86;97594.67;86209;1287;22604;-69
2022/11/17 05:29:08;;;;;;;2.40;2.20;;;;;;;1.52;90.07;97595.23;85969;1285;98128;-69
2022/11/17 05:31:10;;;;;;;2.30;2.20;;;;;;;1.51;89.75;97591.29;85971;1287;23056;-71
2022/11/17 05:33:12;;;;;;;2.00;1.90;;;;;;;1.50;89.91;97594.08;86116;1285;23891;-70
2022/11/17 05:35:13;;;;;;;2.60;2.40;;;;;;;1.49;89.66;97596.35;85937;1284;99125;-70
2022/11/17 05:37:15;;;;;;;2.70;2.50;;;;;;;1.49;89.73;97594.45;85959;1281;22567;-70
2022/11/17 05:39:17;;;;;;;2.60;2.40;;;;;;;1.49;90.00;97597.38;85995;1284;22609;-70
2022/11/17 05:41:19;;;;;;;2.20;2.10;;;;;;;1.48;90.13;97596.06;85927;1284;99011;-71
2022/11/17 05:43:21;;;;;;;2.40;2.30;;;;;;;1.47;89.97;97597.14;86213;1288;27925;-71
2022/11/17 05:45:22;;;;;;;3.40;2.60;;;;;;;1.46;89.97;97601.83;85871;1287;22495;-71
2022/11/17 05:47:24;;;;;;;3.20;3.00;;;;;;;1.46;90.05;97605.64;86008;1285;98736;-71
2022/11/17 05:49:26;;;;;;;2.60;2.40;;;;;;;1.46;90.03;97606.87;86013;1285;22530;-71
2022/11/17 05:51:28;;;;;;;2.40;2.20;;;;;;;1.46;90.22;97606.17;86077;1285;22464;-71
2022/11/17 05:53:31;;;;;;;2.90;2.70;;;;;;;1.45;90.09;97603.27;85947;1281;98953;-70
2022/11/17 05:55:33;;;;;;;2.90;2.70;;;;;;;1.43;89.98;97607.48;86048;1284;22757;-71
2022/11/17 05:57:36;;;;;;;2.50;2.30;;;;;;;1.43;90.09;97602.48;86076;1278;22497;-71
2022/11/17 05:59:59;;;;;;;2.60;2.40;;;;;;;1.42;89.83;97602.50;86000;1278;100675;-69
2022/11/17 06:02:24;;;;;;;3.20;2.90;;;;;;;1.40;89.96;97599.98;86200;1278;22608;-68
2022/11/17 06:04:27;;;;;;;2.70;2.40;;;;;;;1.37;90.01;97599.19;85975;1284;98304;-69
2022/11/17 06:06:30;;;;;;;3.30;3.10;;;;;;;1.35;90.24;97599.45;86019;1284;22597;-70
2022/11/17 06:08:31;;;;;;;4.20;3.50;;;;;;;1.30;89.98;97605.15;86057;1286;22605;-69
2022/11/17 06:10:33;;;;;;;4.60;3.10;;;;;;;1.31;89.94;97623.62;86017;1278;99476;-68
2022/11/17 06:12:35;;;;;;;2.10;1.90;;;;;;;1.30;89.77;97629.91;86093;1284;22478;-70
2022/11/17 06:14:38;;;;;;;2.70;2.60;;;;;;;1.27;89.93;97630.67;86101;1284;22556;-71
2022/11/17 06:16:44;;;;;;;3.50;3.00;;;;;;;1.26;89.96;97637.65;86032;1285;99181;-71
2022/11/17 06:19:14;;;;;;;2.40;2.20;;;;;;;1.23;89.95;97635.49;86078;1287;22509;-70
2022/11/17 06:21:17;;;;;;;2.50;2.30;;;;;;;1.18;89.88;97643.41;86086;1285;24218;-68
2022/11/17 06:23:21;;;;;;;2.90;2.60;;;;;;;1.18;89.94;97647.05;85966;1278;99735;-71
2022/11/17 06:25:23;;;;;;;2.70;2.50;;;;;;;1.15;89.79;97650.60;86406;1286;22482;-70
2022/11/17 06:27:25;;;;;;;3.10;2.90;;;;;;;1.12;89.90;97645.85;85886;1287;23007;-68
2022/11/17 06:29:28;;;;;;;2.20;2.10;;;;;;;1.11;89.62;97642.77;86024;1284;99511;-70
2022/11/17 06:31:31;;;;;;;2.80;2.60;;;;;;;1.09;89.77;97644.73;86406;1284;22445;-68
2022/11/17 06:33:34;;;;;;;4.90;2.70;;;;;;;1.09;89.67;97649.27;85899;1281;22540;-68
2022/11/17 06:35:37;;;;;;;2.90;2.70;;;;;;;1.08;89.76;97649.30;86003;1284;98597;-70
2022/11/17 06:37:39;;;;;;;2.90;2.70;;;;;;;1.06;89.66;97651.24;86032;1281;22492;-72
2022/11/17 06:39:41;;;;;;;3.40;2.60;;;;;;;1.05;89.59;97653.52;86108;1284;22632;-70
2022/11/17 06:41:42;;;;;;;2.80;2.60;;;;;;;1.03;89.80;97651.70;86098;1284;97872;-68
2022/11/17 06:43:47;;;;;;;4.00;3.70;;;;;;;0.95;89.56;97646.38;86124;1278;22637;-69
2022/11/17 06:45:48;;;;;;;3.00;2.80;;;;;;;0.99;89.70;97657.48;86039;1288;22999;-68
2022/11/17 06:47:53;;;;;;;5.90;3.00;;;;;;;0.99;89.73;97660.46;85950;1281;99189;-69
2022/11/17 06:49:55;;;;;;;2.80;2.60;;;;;;;0.98;89.86;97665.83;86071;1281;22601;-70
2022/11/17 06:51:56;;;;;;;4.00;3.70;;;;;;;0.99;89.83;97667.55;86133;1281;22576;-69
2022/11/17 06:53:58;;;;;;;3.20;3.00;;;;;;;0.99;89.71;97669.98;86029;1278;99065;-71
2022/11/17 06:58:11;;;;;;;3.20;3.00;;;;;;;0.97;89.82;97670.52;86043;1278;23955;-70
2022/11/17 07:00:14;;;;;;;3.60;3.20;;;;;;;0.94;89.96;97668.39;85849;1288;99042;-69
2022/11/17 07:02:15;;;;;;;5.70;3.40;;;;;;;0.98;89.57;97672.76;86045;1278;22506;-69
2022/11/17 07:04:17;;;;;;;3.40;3.10;;;;;;;0.98;89.61;97671.91;86092;1284;22548;-69
2022/11/17 07:06:19;;;;;;;2.40;2.30;;;;;;;0.97;89.91;97668.81;86011;1281;97879;-69
2022/11/17 07:08:21;;;;;;;3.00;2.80;;;;;;;0.98;89.80;97667.05;85947;1287;22487;-69
2022/11/17 07:10:24;;;;;;;3.10;2.90;;;;;;;0.96;89.56;97664.00;86069;1278;24320;-70
2022/11/17 07:12:25;;;;;;;3.90;3.60;;;;;;;0.95;89.64;97668.17;86043;1278;25243;-69
2022/11/17 07:14:27;;;;;;;2.30;2.20;;;;;;;0.95;89.77;97668.36;86112;1281;22501;-71
2022/11/17 07:16:30;;;;;;;3.10;2.90;;;;;;;0.94;89.83;97671.31;85321;1285;98341;-72
2022/11/17 07:18:32;;;;;;;3.40;3.20;;;;;;;0.92;89.65;97670.34;86147;1278;22467;-70
2022/11/17 07:20:34;;;;;;;5.60;3.60;;;;;;;0.90;89.58;97670.06;85898;1287;25418;-69
2022/11/17 07:22:36;;;;;;;3.30;3.10;;;;;;;0.88;89.46;97671.67;86107;1285;99114;-70
2022/11/17 07:24:38;;;;;;;3.60;3.00;;;;;;;0.88;89.75;97669.42;86204;1285;22616;-71
2022/11/17 07:26:40;;;;;;;3.60;3.40;;;;;;;0.88;89.60;97669.96;86033;1285;22492;-70
2022/11/17 07:28:42;;;;;;;5.60;3.60;;;;;;;0.87;89.69;97670.83;86113;1278;99188;-71
2022/11/17 07:30:53;;;;;;;3.30;3.10;;;;;;;0.87;89.59;97670.50;86714;1281;22500;-69
2022/11/17 07:32:59;;;;;;;3.80;3.50;;;;;;;0.88;89.59;97674.12;87019;1288;22483;-70
2022/11/17 07:35:04;;;;;;;2.90;2.70;;;;;;;0.88;89.88;97673.24;86181;1278;99222;-70
2022/11/17 07:37:06;;;;;;;3.60;3.30;;;;;;;0.89;89.97;97681.51;86657;1282;22582;-69
2022/11/17 07:39:08;;;;;;;3.40;3.20;;;;;;;0.89;89.64;97681.16;85999;1281;24264;-69
2022/11/17 07:41:12;;;;;;;3.30;3.10;;;;;;;0.90;89.57;97685.98;86064;1278;99892;-70
2022/11/17 07:43:14;;;;;;;3.20;3.00;;;;;;;0.90;89.78;97689.61;86080;1278;176643;-70
2022/11/17 07:45:16;;;;;;;3.00;2.80;;;;;;;0.90;89.55;97695.66;86061;1282;22512;-70
2022/11/17 07:47:17;;;;;;;3.30;3.10;;;;;;;0.89;89.77;97691.52;85939;1288;100019;-69
2022/11/17 07:49:19;;;;;;;3.70;3.40;;;;;;;0.90;89.85;97690.47;86298;1278;22970;-70
2022/11/17 07:51:21;;;;;;;3.90;3.60;;;;;;;0.91;89.53;97688.73;86113;1278;22471;-73
2022/11/17 07:53:23;;;;;;;4.80;4.40;;;;;;;0.91;89.75;97687.33;86018;1281;98090;-69
2022/11/17 07:55:25;;;;;;;4.40;4.00;;;;;;;0.92;89.72;97686.77;86162;1285;22665;-69
2022/11/17 07:57:27;;;;;;;5.50;4.40;;;;;;;0.93;90.00;97689.17;86490;1288;22636;-69
2022/11/17 07:59:29;;;;;;;4.30;3.90;;;;;;;0.92;89.81;97692.50;86125;1278;99198;-70
2022/11/17 08:01:32;;;;;;;3.60;3.30;;;;;;;0.91;89.57;97692.85;86048;1285;22619;-69
2022/11/17 08:03:41;;;;;;;7.20;3.70;;;;;;;0.91;89.83;97692.01;86395;1285;22480;-69
2022/11/17 08:05:43;;;;;;;2.80;2.60;;;;;;;0.89;89.64;97689.28;86101;1288;98347;-68
2022/11/17 08:07:53;;;;;;;4.80;3.20;;;;;;;0.90;89.60;97694.96;86426;1285;22508;-69
2022/11/17 08:09:55;;;;;;;3.50;3.30;;;;;;;0.90;89.59;97690.47;86377;1278;22608;-69
2022/11/17 08:11:58;;;;;;;3.80;3.50;;;;;;;0.89;89.66;97691.88;86242;1285;102782;-69
2022/11/17 08:13:59;;;;;;;9.10;3.30;;;;;;;0.91;89.63;97689.06;86246;1285;22462;-69
2022/11/17 08:16:01;;;;;;;6.80;3.40;;;;;;;0.92;89.93;97686.24;86417;1278;24052;-70
2022/11/17 08:18:03;;;;;;;5.20;2.80;;;;;;;0.93;89.58;97683.63;85937;1289;99586;-69
2022/11/17 08:20:06;;;;;;;5.20;2.70;;;;;;;0.93;89.79;97686.23;86318;1284;23984;-70
2022/11/17 08:22:08;;;;;;;3.80;3.50;;;;;;;0.93;89.72;97682.59;86094;1288;22444;-70
2022/11/17 08:24:11;;;;;;;13.30;3.80;;;;;;;0.94;89.63;97679.46;86320;1278;97920;-70
2022/11/17 08:26:13;;;;;;;3.50;3.20;;;;;;;0.95;89.63;97680.83;86782;1282;22450;-70
2022/11/17 08:28:14;;;;;;;3.50;3.30;;;;;;;0.96;89.80;97680.08;86318;1278;23379;-69
2022/11/17 08:30:20;;;;;;;3.60;3.40;;;;;;;0.98;89.95;97680.20;86148;1288;99101;-68
2022/11/17 08:32:22;;;;;;;5.40;3.90;;;;;;;1.00;89.63;97684.30;86251;1281;22614;-70
2022/11/17 08:34:23;;;;;;;6.20;4.00;;;;;;;0.98;89.81;97680.55;86073;1281;99220;-70
2022/11/17 08:36:25;;;;;;;4.30;4.00;;;;;;;1.01;89.82;97692.71;86316;1288;25967;-70
2022/11/17 08:38:28;;;;;;;6.70;4.00;;;;;;;0.99;89.51;97692.80;86171;1281;22470;-71
2022/11/17 08:40:30;;;;;;;4.80;4.40;;;;;;;1.01;89.81;97701.37;86134;1278;99478;-69
2022/11/17 08:42:31;;;;;;;4.80;3.60;;;;;;;1.02;89.75;97702.04;86132;1280;22524;-70
2022/11/17 08:44:33;;;;;;;4.00;3.60;;;;;;;1.01;89.60;97701.89;86131;1280;22493;-69
2022/11/17 08:46:35;;;;;;;6.50;5.40;;;;;;;1.00;89.72;97700.03;86162;1281;98654;-69
2022/11/17 08:48:36;;;;;;;6.80;4.80;;;;;;;0.96;89.53;97699.64;86370;1281;24755;-69
2022/11/17 08:50:38;;;;;;;4.80;4.30;;;;;;;0.93;89.86;97698.51;86355;1287;22544;-68
2022/11/17 08:52:40;;;;;;;5.60;4.90;;;;;;;0.92;89.66;97699.59;86145;1285;99167;-71
2022/11/17 08:54:43;;;;;;;4.60;4.20;;;;;;;0.93;89.73;97701.63;86213;1286;22542;-69
2022/11/17 08:56:45;;;;;;;5.00;4.60;;;;;;;0.93;89.96;97699.89;86142;1279;22428;-69
2022/11/17 08:58:46;;;;;;;5.30;4.90;;;;;;;0.95;89.59;97707.10;86090;1278;100161;-69
2022/11/17 09:00:48;;;;;;;4.00;3.70;;;;;;;0.98;89.91;97709.25;86158;1284;22523;-68
2022/11/17 09:02:50;;;;;;;4.60;4.20;;;;;;;0.99;89.77;97714.75;86122;1278;22997;-69
2022/11/17 09:04:52;;;;;;;3.90;3.50;;;;;;;1.00;89.98;97715.23;86073;1279;99085;-70
2022/11/17 09:06:54;;;;;;;4.70;4.40;;;;;;;1.01;89.88;97712.78;86159;1286;22458;-69
2022/11/17 09:08:55;;;;;;;5.80;5.00;;;;;;;1.02;90.00;97711.91;86141;1282;22940;-70
2022/11/17 09:10:57;;;;;;;4.70;4.40;;;;;;;1.02;89.74;97713.63;86080;1287;100100;-68
2022/11/17 09:12:59;;;;;;;5.20;4.80;;;;;;;1.03;89.69;97710.48;86000;1283;22528;-70
2022/11/17 09:15:01;;;;;;;8.00;5.40;;;;;;;1.02;89.65;97704.10;86143;1281;28006;-70
2022/11/17 09:17:03;;;;;;;6.40;5.80;;;;;;;1.04;89.79;97697.85;85932;1281;98842;-69
2022/11/17 09:19:05;;;;;;;7.70;5.50;;;;;;;1.05;89.86;97700.58;86144;1285;22713;-69
2022/11/17 09:21:10;;;;;;;8.70;5.20;;;;;;;1.07;89.98;97702.06;86046;1280;22568;-71
2022/11/17 09:23:11;;;;;;;5.20;4.90;;;;;;;1.09;89.88;97702.36;86085;1281;99030;-68
2022/11/17 09:25:13;;;;;;;5.90;4.60;;;;;;;1.09;89.88;97697.15;86172;1285;22562;-71
2022/11/17 09:27:15;;;;;;;5.90;5.40;;;;;;;1.09;89.71;97698.38;85993;1281;22659;-70
2022/11/17 09:29:17;;;;;;;4.20;3.90;;;;;;;1.10;89.65;97698.01;85892;1288;100239;-71
2022/11/17 09:31:21;;;;;;;5.00;4.50;;;;;;;1.09;89.85;97699.06;86035;1281;26528;-70
2022/11/17 09:33:23;;;;;;;4.90;4.40;;;;;;;1.08;89.78;97701.17;86215;1278;22646;-69
2022/11/17 09:35:25;;;;;;;4.00;3.70;;;;;;;1.07;89.71;97705.87;85911;1288;99784;-69
2022/11/17 09:37:27;;;;;;;3.70;3.40;;;;;;;1.06;89.56;97706.60;86116;1288;23428;-71
2022/11/17 09:39:29;;;;;;;2.90;2.70;;;;;;;1.06;89.73;97712.15;86162;1278;22493;-71
2022/11/17 09:41:42;;;;;;;3.40;3.20;;;;;;;1.04;89.47;97712.02;86161;1285;99909;-71
2022/11/17 09:43:53;;;;;;;3.80;3.50;;;;;;;1.03;89.64;97710.83;86054;1288;22613;-69
2022/11/17 09:46:16;;;;;;;4.70;4.20;;;;;;;1.03;89.63;97708.08;86069;1287;26524;-70
2022/11/17 09:48:29;;;;;;;4.00;3.70;;;;;;;1.05;89.57;97708.71;85925;1286;98865;-70
2022/11/17 09:50:37;;;;;;;7.80;4.80;;;;;;;1.07;89.70;97706.73;86040;1287;22726;-71
2022/11/17 09:52:47;;;;;;;4.90;4.50;;;;;;;1.10;89.96;97704.72;86180;1278;100093;-70
2022/11/17 09:55:23;;;;;;;4.30;3.90;;;;;;;1.13;89.78;97701.17;86103;1285;22789;-71
2022/11/17 09:57:34;;;;;;;4.30;4.00;;;;;;;1.14;89.82;97704.27;86121;1286;24239;-70
2022/11/17 09:59:36;;;;;;;4.10;3.80;;;;;;;1.12;89.55;97705.36;86132;1283;99133;-70
2022/11/17 10:01:38;;;;;;;4.80;4.40;;;;;;;1.09;89.58;97702.88;86110;1287;22500;-69
2022/11/17 10:03:43;;;;;;;4.70;4.30;;;;;;;1.07;89.57;97702.60;86214;1279;22488;-71
2022/11/17 10:05:45;;;;;;;5.40;4.90;;;;;;;1.05;89.75;97702.98;86081;1278;99652;-71
2022/11/17 10:07:50;;;;;;;6.50;4.60;;;;;;;1.05;89.65;97706.26;86147;1278;22712;-69
2022/11/17 10:09:53;;;;;;;7.30;4.70;;;;;;;1.06;89.65;97706.58;86216;1281;24249;-69
2022/11/17 10:12:12;;;;;;;5.30;4.80;;;;;;;1.03;89.59;97697.52;86091;1289;99965;-71
2022/11/17 10:14:20;;;;;;;4.30;4.00;;;;;;;1.05;89.69;97701.42;86179;1281;27176;-71
2022/11/17 10:16:22;;;;;;;4.40;4.00;;;;;;;1.03;89.74;97704.79;86231;1278;24327;-72
2022/11/17 10:18:35;;;;;;;4.30;3.90;;;;;;;1.00;89.58;97702.11;86094;1282;24334;-70
2022/11/17 10:20:36;;;;;;;3.80;3.50;;;;;;;0.97;89.45;97700.46;86444;1280;22591;-70
2022/11/17 10:22:39;;;;;;;5.40;4.20;;;;;;;0.96;89.49;97705.34;85920;1288;99626;-72
2022/11/17 10:24:53;;;;;;;4.20;3.60;;;;;;;0.97;89.38;97700.98;86150;1278;22574;-70
2022/11/17 10:26:55;;;;;;;5.30;3.80;;;;;;;1.00;89.40;97702.28;86244;1278;22518;-69
2022/11/17 10:29:07;;;;;;;4.40;2.80;;;;;;;1.02;89.50;97697.04;86183;1280;99250;-70